sensor_id;sensor_type;location;lat;lon;timestamp;temperature;humidity
40534;DHT22;26233;51.894;10.192;2023-09-19T00:00:25;19.00;48.00
40534;DHT22;26233;51.894;10.192;2023-09-19T00:02:53;19.00;48.00
40534;DHT22;26233;51.894;10.192;2023-09-19T00:05:22;19.00;48.00
40534;DHT22;26233;51.894;10.192;2023-09-19T00:07:53;19.00;48.10
40534;DHT22;26233;51.894;10.192;2023-09-19T00:10:24;19.00;48.70
40534;DHT22;26233;51.894;10.192;2023-09-19T00:12:52;19.00;48.20
40534;DHT22;26233;51.894;10.192;2023-09-19T00:15:22;19.00;48.20
40534;DHT22;26233;51.894;10.192;2023-09-19T00:17:49;19.00;48.20
40534;DHT22;26233;51.894;10.192;2023-09-19T00:20:18;19.00;48.20
40534;DHT22;26233;51.894;10.192;2023-09-19T00:22:47;19.10;48.30
40534;DHT22;26233;51.894;10.192;2023-09-19T00:25:14;19.00;48.20
40534;DHT22;26233;51.894;10.192;2023-09-19T00:27:42;19.00;48.20
40534;DHT22;26233;51.894;10.192;2023-09-19T00:30:12;19.00;48.20
40534;DHT22;26233;51.894;10.192;2023-09-19T00:32:47;19.00;48.30
40534;DHT22;26233;51.894;10.192;2023-09-19T00:35:15;19.00;48.30
40534;DHT22;26233;51.894;10.192;2023-09-19T00:37:42;19.00;48.40
40534;DHT22;26233;51.894;10.192;2023-09-19T00:40:10;19.00;48.40
40534;DHT22;26233;51.894;10.192;2023-09-19T00:42:38;19.00;48.50
40534;DHT22;26233;51.894;10.192;2023-09-19T00:45:07;19.00;48.50
40534;DHT22;26233;51.894;10.192;2023-09-19T00:47:37;19.10;48.60
40534;DHT22;26233;51.894;10.192;2023-09-19T00:50:06;19.10;48.60
40534;DHT22;26233;51.894;10.192;2023-09-19T00:52:36;19.10;48.70
40534;DHT22;26233;51.894;10.192;2023-09-19T00:55:06;19.10;48.70
40534;DHT22;26233;51.894;10.192;2023-09-19T00:57:34;19.20;48.70
40534;DHT22;26233;51.894;10.192;2023-09-19T01:00:05;19.20;48.70
40534;DHT22;26233;51.894;10.192;2023-09-19T01:02:34;19.20;48.70
40534;DHT22;26233;51.894;10.192;2023-09-19T01:05:01;19.20;48.70
40534;DHT22;26233;51.894;10.192;2023-09-19T01:07:32;19.20;48.70
40534;DHT22;26233;51.894;10.192;2023-09-19T01:10:00;19.30;48.90
40534;DHT22;26233;51.894;10.192;2023-09-19T01:12:35;19.30;48.70
40534;DHT22;26233;51.894;10.192;2023-09-19T01:15:17;19.30;48.80
40534;DHT22;26233;51.894;10.192;2023-09-19T01:17:53;19.30;48.80
40534;DHT22;26233;51.894;10.192;2023-09-19T01:20:33;19.30;48.80
40534;DHT22;26233;51.894;10.192;2023-09-19T01:23:13;19.20;48.70
40534;DHT22;26233;51.894;10.192;2023-09-19T01:26:05;19.20;48.70
40534;DHT22;26233;51.894;10.192;2023-09-19T01:28:45;19.20;48.70
40534;DHT22;26233;51.894;10.192;2023-09-19T01:31:23;19.20;48.70
40534;DHT22;26233;51.894;10.192;2023-09-19T01:34:00;19.20;48.70
40534;DHT22;26233;51.894;10.192;2023-09-19T01:36:31;19.10;48.70
40534;DHT22;26233;51.894;10.192;2023-09-19T01:39:02;19.10;48.50
40534;DHT22;26233;51.894;10.192;2023-09-19T01:41:45;19.10;48.60
40534;DHT22;26233;51.894;10.192;2023-09-19T01:44:27;19.10;48.80
40534;DHT22;26233;51.894;10.192;2023-09-19T01:47:00;19.10;48.70
40534;DHT22;26233;51.894;10.192;2023-09-19T01:49:37;19.00;48.60
40534;DHT22;26233;51.894;10.192;2023-09-19T01:52:11;19.00;48.60
40534;DHT22;26233;51.894;10.192;2023-09-19T01:54:46;19.00;48.60
40534;DHT22;26233;51.894;10.192;2023-09-19T01:57:22;19.00;48.70
40534;DHT22;26233;51.894;10.192;2023-09-19T01:59:59;18.90;48.70
40534;DHT22;26233;51.894;10.192;2023-09-19T02:02:34;18.90;48.70
40534;DHT22;26233;51.894;10.192;2023-09-19T02:05:01;18.90;48.70
40534;DHT22;26233;51.894;10.192;2023-09-19T02:07:29;18.90;48.80
40534;DHT22;26233;51.894;10.192;2023-09-19T02:09:57;18.90;48.80
40534;DHT22;26233;51.894;10.192;2023-09-19T02:12:25;18.80;48.80
40534;DHT22;26233;51.894;10.192;2023-09-19T02:14:52;18.80;48.90
40534;DHT22;26233;51.894;10.192;2023-09-19T02:17:19;18.80;48.90
40534;DHT22;26233;51.894;10.192;2023-09-19T02:19:48;18.80;49.00
40534;DHT22;26233;51.894;10.192;2023-09-19T02:22:15;18.80;49.00
40534;DHT22;26233;51.894;10.192;2023-09-19T02:24:42;18.80;49.00
40534;DHT22;26233;51.894;10.192;2023-09-19T02:27:09;18.80;49.10
40534;DHT22;26233;51.894;10.192;2023-09-19T02:29:38;18.70;49.00
40534;DHT22;26233;51.894;10.192;2023-09-19T02:32:05;18.70;49.00
40534;DHT22;26233;51.894;10.192;2023-09-19T02:34:32;18.70;49.00
40534;DHT22;26233;51.894;10.192;2023-09-19T02:37:03;18.70;49.00
40534;DHT22;26233;51.894;10.192;2023-09-19T02:39:31;18.70;49.10
40534;DHT22;26233;51.894;10.192;2023-09-19T02:41:58;18.60;49.60
40534;DHT22;26233;51.894;10.192;2023-09-19T02:44:26;18.60;49.10
40534;DHT22;26233;51.894;10.192;2023-09-19T02:46:53;18.60;49.20
40534;DHT22;26233;51.894;10.192;2023-09-19T02:49:20;18.60;49.20
40534;DHT22;26233;51.894;10.192;2023-09-19T02:51:47;18.60;49.20
40534;DHT22;26233;51.894;10.192;2023-09-19T02:54:16;18.60;49.20
40534;DHT22;26233;51.894;10.192;2023-09-19T02:56:43;18.50;49.10
40534;DHT22;26233;51.894;10.192;2023-09-19T02:59:10;18.50;49.10
40534;DHT22;26233;51.894;10.192;2023-09-19T03:01:37;18.50;49.10
40534;DHT22;26233;51.894;10.192;2023-09-19T03:04:05;18.50;49.20
40534;DHT22;26233;51.894;10.192;2023-09-19T03:06:36;18.50;49.20
40534;DHT22;26233;51.894;10.192;2023-09-19T03:09:04;18.50;49.10
40534;DHT22;26233;51.894;10.192;2023-09-19T03:11:40;18.50;49.20
40534;DHT22;26233;51.894;10.192;2023-09-19T03:14:08;18.40;49.10
40534;DHT22;26233;51.894;10.192;2023-09-19T03:16:35;18.40;49.10
40534;DHT22;26233;51.894;10.192;2023-09-19T03:19:03;18.40;49.10
40534;DHT22;26233;51.894;10.192;2023-09-19T03:21:30;18.40;49.20
40534;DHT22;26233;51.894;10.192;2023-09-19T03:23:58;18.40;49.10
40534;DHT22;26233;51.894;10.192;2023-09-19T03:26:25;18.30;49.00
40534;DHT22;26233;51.894;10.192;2023-09-19T03:28:53;18.30;49.00
40534;DHT22;26233;51.894;10.192;2023-09-19T03:31:20;18.30;49.00
40534;DHT22;26233;51.894;10.192;2023-09-19T03:33:48;18.20;49.00
40534;DHT22;26233;51.894;10.192;2023-09-19T03:36:15;18.20;49.00
40534;DHT22;26233;51.894;10.192;2023-09-19T03:38:42;18.20;49.00
40534;DHT22;26233;51.894;10.192;2023-09-19T03:41:09;18.20;49.10
40534;DHT22;26233;51.894;10.192;2023-09-19T03:43:39;18.10;48.90
40534;DHT22;26233;51.894;10.192;2023-09-19T03:46:08;18.10;48.90
40534;DHT22;26233;51.894;10.192;2023-09-19T03:48:35;18.10;48.90
40534;DHT22;26233;51.894;10.192;2023-09-19T03:51:02;18.10;48.90
40534;DHT22;26233;51.894;10.192;2023-09-19T03:53:30;18.00;48.90
40534;DHT22;26233;51.894;10.192;2023-09-19T03:55:57;18.00;48.80
40534;DHT22;26233;51.894;10.192;2023-09-19T03:58:25;18.00;48.80
40534;DHT22;26233;51.894;10.192;2023-09-19T04:00:55;18.00;48.80
40534;DHT22;26233;51.894;10.192;2023-09-19T04:03:23;18.00;48.80
40534;DHT22;26233;51.894;10.192;2023-09-19T04:06:00;18.00;48.80
40534;DHT22;26233;51.894;10.192;2023-09-19T04:08:28;17.90;48.70
40534;DHT22;26233;51.894;10.192;2023-09-19T04:10:55;18.00;48.80
40534;DHT22;26233;51.894;10.192;2023-09-19T04:13:22;18.00;48.70
40534;DHT22;26233;51.894;10.192;2023-09-19T04:15:49;17.90;48.70
40534;DHT22;26233;51.894;10.192;2023-09-19T04:18:16;17.90;48.60
40534;DHT22;26233;51.894;10.192;2023-09-19T04:20:49;17.90;48.60
40534;DHT22;26233;51.894;10.192;2023-09-19T04:23:17;17.90;48.60
40534;DHT22;26233;51.894;10.192;2023-09-19T04:25:45;17.90;48.50
40534;DHT22;26233;51.894;10.192;2023-09-19T04:28:12;17.80;48.50
40534;DHT22;26233;51.894;10.192;2023-09-19T04:30:39;17.70;48.40
40534;DHT22;26233;51.894;10.192;2023-09-19T04:33:07;17.80;48.50
40534;DHT22;26233;51.894;10.192;2023-09-19T04:35:34;17.80;48.50
40534;DHT22;26233;51.894;10.192;2023-09-19T04:38:03;17.80;48.50
40534;DHT22;26233;51.894;10.192;2023-09-19T04:40:32;17.80;48.50
40534;DHT22;26233;51.894;10.192;2023-09-19T04:42:59;17.80;48.40
40534;DHT22;26233;51.894;10.192;2023-09-19T04:45:27;17.90;48.40
40534;DHT22;26233;51.894;10.192;2023-09-19T04:47:55;17.90;48.40
40534;DHT22;26233;51.894;10.192;2023-09-19T04:50:22;17.90;48.40
40534;DHT22;26233;51.894;10.192;2023-09-19T04:52:53;17.90;48.40
40534;DHT22;26233;51.894;10.192;2023-09-19T04:55:21;17.90;48.40
40534;DHT22;26233;51.894;10.192;2023-09-19T04:57:49;17.90;48.40
40534;DHT22;26233;51.894;10.192;2023-09-19T05:00:19;17.90;48.40
40534;DHT22;26233;51.894;10.192;2023-09-19T05:02:50;17.90;48.40
40534;DHT22;26233;51.894;10.192;2023-09-19T05:05:18;17.90;48.40
40534;DHT22;26233;51.894;10.192;2023-09-19T05:07:45;18.00;48.40
40534;DHT22;26233;51.894;10.192;2023-09-19T05:10:13;17.90;49.00
40534;DHT22;26233;51.894;10.192;2023-09-19T05:12:42;17.90;48.30
40534;DHT22;26233;51.894;10.192;2023-09-19T05:15:12;17.90;48.30
40534;DHT22;26233;51.894;10.192;2023-09-19T05:17:41;17.90;48.30
40534;DHT22;26233;51.894;10.192;2023-09-19T05:20:09;17.90;48.20
40534;DHT22;26233;51.894;10.192;2023-09-19T05:22:39;17.90;48.20
40534;DHT22;26233;51.894;10.192;2023-09-19T05:25:07;17.90;48.20
40534;DHT22;26233;51.894;10.192;2023-09-19T05:27:34;17.80;48.10
40534;DHT22;26233;51.894;10.192;2023-09-19T05:30:03;17.80;48.10
40534;DHT22;26233;51.894;10.192;2023-09-19T05:32:32;17.80;48.10
40534;DHT22;26233;51.894;10.192;2023-09-19T05:34:59;17.80;48.10
40534;DHT22;26233;51.894;10.192;2023-09-19T05:37:26;17.80;48.10
40534;DHT22;26233;51.894;10.192;2023-09-19T05:39:55;17.70;48.00
40534;DHT22;26233;51.894;10.192;2023-09-19T05:42:23;17.70;48.00
40534;DHT22;26233;51.894;10.192;2023-09-19T05:44:50;17.70;47.90
40534;DHT22;26233;51.894;10.192;2023-09-19T05:47:18;17.70;47.90
40534;DHT22;26233;51.894;10.192;2023-09-19T05:49:45;17.70;47.90
40534;DHT22;26233;51.894;10.192;2023-09-19T05:52:15;17.70;47.90
40534;DHT22;26233;51.894;10.192;2023-09-19T05:54:43;17.60;47.80
40534;DHT22;26233;51.894;10.192;2023-09-19T05:57:10;17.60;47.80
40534;DHT22;26233;51.894;10.192;2023-09-19T05:59:37;17.60;47.80
40534;DHT22;26233;51.894;10.192;2023-09-19T06:02:05;17.60;47.70
40534;DHT22;26233;51.894;10.192;2023-09-19T06:04:33;17.50;47.60
40534;DHT22;26233;51.894;10.192;2023-09-19T06:07:01;17.60;47.60
40534;DHT22;26233;51.894;10.192;2023-09-19T06:09:28;17.50;47.40
40534;DHT22;26233;51.894;10.192;2023-09-19T06:11:57;17.40;47.30
40534;DHT22;26233;51.894;10.192;2023-09-19T06:14:25;17.50;47.40
40534;DHT22;26233;51.894;10.192;2023-09-19T06:16:52;17.50;47.40
40534;DHT22;26233;51.894;10.192;2023-09-19T06:19:19;17.40;47.40
40534;DHT22;26233;51.894;10.192;2023-09-19T06:21:49;17.40;47.40
40534;DHT22;26233;51.894;10.192;2023-09-19T06:24:17;17.40;47.30
40534;DHT22;26233;51.894;10.192;2023-09-19T06:26:45;17.40;47.20
40534;DHT22;26233;51.894;10.192;2023-09-19T06:29:13;17.40;47.20
40534;DHT22;26233;51.894;10.192;2023-09-19T06:31:40;17.40;47.10
40534;DHT22;26233;51.894;10.192;2023-09-19T06:34:07;17.40;47.10
40534;DHT22;26233;51.894;10.192;2023-09-19T06:36:34;17.40;47.20
40534;DHT22;26233;51.894;10.192;2023-09-19T06:39:03;17.40;47.10
40534;DHT22;26233;51.894;10.192;2023-09-19T06:41:32;17.40;47.20
40534;DHT22;26233;51.894;10.192;2023-09-19T06:43:59;17.40;47.20
40534;DHT22;26233;51.894;10.192;2023-09-19T06:46:26;17.40;47.10
40534;DHT22;26233;51.894;10.192;2023-09-19T06:48:58;17.50;47.20
40534;DHT22;26233;51.894;10.192;2023-09-19T06:51:25;17.50;47.20
40534;DHT22;26233;51.894;10.192;2023-09-19T06:53:52;17.60;47.30
40534;DHT22;26233;51.894;10.192;2023-09-19T06:56:21;17.60;47.30
40534;DHT22;26233;51.894;10.192;2023-09-19T06:58:50;17.70;47.20
40534;DHT22;26233;51.894;10.192;2023-09-19T07:01:17;17.80;47.20
40534;DHT22;26233;51.894;10.192;2023-09-19T07:03:44;17.90;47.20
40534;DHT22;26233;51.894;10.192;2023-09-19T07:06:12;17.90;47.10
40534;DHT22;26233;51.894;10.192;2023-09-19T07:08:39;18.00;47.10
40534;DHT22;26233;51.894;10.192;2023-09-19T07:11:06;18.10;47.10
40534;DHT22;26233;51.894;10.192;2023-09-19T07:13:34;18.20;47.00
40534;DHT22;26233;51.894;10.192;2023-09-19T07:16:02;18.20;46.80
40534;DHT22;26233;51.894;10.192;2023-09-19T07:18:29;18.30;46.80
40534;DHT22;26233;51.894;10.192;2023-09-19T07:20:57;18.30;46.60
40534;DHT22;26233;51.894;10.192;2023-09-19T07:23:30;18.40;46.60
40534;DHT22;26233;51.894;10.192;2023-09-19T07:26:00;18.40;46.50
40534;DHT22;26233;51.894;10.192;2023-09-19T07:28:30;18.40;46.30
40534;DHT22;26233;51.894;10.192;2023-09-19T07:31:02;18.50;46.50
40534;DHT22;26233;51.894;10.192;2023-09-19T07:33:30;18.60;46.40
40534;DHT22;26233;51.894;10.192;2023-09-19T07:35:57;18.70;46.50
40534;DHT22;26233;51.894;10.192;2023-09-19T07:38:24;18.70;46.50
40534;DHT22;26233;51.894;10.192;2023-09-19T07:40:52;18.80;46.90
40534;DHT22;26233;51.894;10.192;2023-09-19T07:43:20;19.10;47.40
40534;DHT22;26233;51.894;10.192;2023-09-19T07:45:48;19.30;47.50
40534;DHT22;26233;51.894;10.192;2023-09-19T07:48:16;19.60;47.60
40534;DHT22;26233;51.894;10.192;2023-09-19T07:50:43;19.80;47.00
40534;DHT22;26233;51.894;10.192;2023-09-19T07:53:11;20.00;47.00
40534;DHT22;26233;51.894;10.192;2023-09-19T07:55:39;20.10;46.40
40534;DHT22;26233;51.894;10.192;2023-09-19T07:58:06;20.20;46.10
40534;DHT22;26233;51.894;10.192;2023-09-19T08:00:33;20.30;45.90
40534;DHT22;26233;51.894;10.192;2023-09-19T08:03:00;20.30;45.70
40534;DHT22;26233;51.894;10.192;2023-09-19T08:05:30;20.30;45.50
40534;DHT22;26233;51.894;10.192;2023-09-19T08:07:59;20.20;45.10
40534;DHT22;26233;51.894;10.192;2023-09-19T08:10:26;20.20;45.00
40534;DHT22;26233;51.894;10.192;2023-09-19T08:13:00;20.10;44.70
40534;DHT22;26233;51.894;10.192;2023-09-19T08:15:27;20.00;44.60
40534;DHT22;26233;51.894;10.192;2023-09-19T08:17:54;19.90;44.60
40534;DHT22;26233;51.894;10.192;2023-09-19T08:20:21;19.80;44.70
40534;DHT22;26233;51.894;10.192;2023-09-19T08:22:51;19.80;44.70
40534;DHT22;26233;51.894;10.192;2023-09-19T08:25:20;19.70;44.70
40534;DHT22;26233;51.894;10.192;2023-09-19T08:27:47;19.70;44.90
40534;DHT22;26233;51.894;10.192;2023-09-19T08:30:15;19.80;45.00
40534;DHT22;26233;51.894;10.192;2023-09-19T08:32:43;19.80;45.20
40534;DHT22;26233;51.894;10.192;2023-09-19T08:35:11;19.90;45.60
40534;DHT22;26233;51.894;10.192;2023-09-19T08:37:39;20.10;45.70
40534;DHT22;26233;51.894;10.192;2023-09-19T08:40:09;20.30;46.40
40534;DHT22;26233;51.894;10.192;2023-09-19T08:42:48;20.40;45.60
40534;DHT22;26233;51.894;10.192;2023-09-19T08:45:16;20.60;45.20
40534;DHT22;26233;51.894;10.192;2023-09-19T08:47:46;20.80;46.00
40534;DHT22;26233;51.894;10.192;2023-09-19T08:50:19;21.10;46.10
40534;DHT22;26233;51.894;10.192;2023-09-19T08:52:52;21.30;45.80
40534;DHT22;26233;51.894;10.192;2023-09-19T08:55:28;21.70;45.80
40534;DHT22;26233;51.894;10.192;2023-09-19T08:58:01;21.90;45.40
40534;DHT22;26233;51.894;10.192;2023-09-19T09:00:32;22.10;45.20
40534;DHT22;26233;51.894;10.192;2023-09-19T09:03:01;22.40;44.90
40534;DHT22;26233;51.894;10.192;2023-09-19T09:05:30;22.50;44.90
40534;DHT22;26233;51.894;10.192;2023-09-19T09:07:58;22.70;44.70
40534;DHT22;26233;51.894;10.192;2023-09-19T09:10:27;22.90;44.60
40534;DHT22;26233;51.894;10.192;2023-09-19T09:12:54;22.90;44.20
40534;DHT22;26233;51.894;10.192;2023-09-19T09:15:22;23.10;44.20
40534;DHT22;26233;51.894;10.192;2023-09-19T09:17:50;23.30;44.20
40534;DHT22;26233;51.894;10.192;2023-09-19T09:20:18;23.30;43.80
40534;DHT22;26233;51.894;10.192;2023-09-19T09:22:52;23.40;43.40
40534;DHT22;26233;51.894;10.192;2023-09-19T09:25:20;23.30;42.50
40534;DHT22;26233;51.894;10.192;2023-09-19T09:28:00;23.20;42.50
40534;DHT22;26233;51.894;10.192;2023-09-19T09:30:35;23.20;42.40
40534;DHT22;26233;51.894;10.192;2023-09-19T09:33:10;23.10;42.60
40534;DHT22;26233;51.894;10.192;2023-09-19T09:35:38;23.10;42.40
40534;DHT22;26233;51.894;10.192;2023-09-19T09:38:17;23.10;42.80
40534;DHT22;26233;51.894;10.192;2023-09-19T09:40:49;23.10;42.70
40534;DHT22;26233;51.894;10.192;2023-09-19T09:43:33;22.90;41.90
40534;DHT22;26233;51.894;10.192;2023-09-19T09:46:12;22.80;41.60
40534;DHT22;26233;51.894;10.192;2023-09-19T09:49:00;22.60;41.60
40534;DHT22;26233;51.894;10.192;2023-09-19T09:51:44;22.50;41.60
40534;DHT22;26233;51.894;10.192;2023-09-19T09:54:25;22.20;41.40
40534;DHT22;26233;51.894;10.192;2023-09-19T09:57:00;22.20;41.80
40534;DHT22;26233;51.894;10.192;2023-09-19T09:59:50;22.10;42.20
40534;DHT22;26233;51.894;10.192;2023-09-19T10:02:20;22.00;42.00
40534;DHT22;26233;51.894;10.192;2023-09-19T10:04:52;22.10;42.50
40534;DHT22;26233;51.894;10.192;2023-09-19T10:07:29;22.10;42.40
40534;DHT22;26233;51.894;10.192;2023-09-19T10:10:02;22.10;42.30
40534;DHT22;26233;51.894;10.192;2023-09-19T10:12:48;22.20;42.40
40534;DHT22;26233;51.894;10.192;2023-09-19T10:15:18;22.10;41.70
40534;DHT22;26233;51.894;10.192;2023-09-19T10:17:47;22.00;41.50
40534;DHT22;26233;51.894;10.192;2023-09-19T10:20:16;21.80;41.20
40534;DHT22;26233;51.894;10.192;2023-09-19T10:23:06;21.70;41.10
40534;DHT22;26233;51.894;10.192;2023-09-19T10:25:39;21.50;40.80
40534;DHT22;26233;51.894;10.192;2023-09-19T10:28:07;21.30;41.10
40534;DHT22;26233;51.894;10.192;2023-09-19T10:30:41;21.20;41.30
40534;DHT22;26233;51.894;10.192;2023-09-19T10:33:11;21.10;41.60
40534;DHT22;26233;51.894;10.192;2023-09-19T10:35:40;21.10;41.90
40534;DHT22;26233;51.894;10.192;2023-09-19T10:38:19;21.10;41.90
40534;DHT22;26233;51.894;10.192;2023-09-19T10:40:50;21.20;42.10
40534;DHT22;26233;51.894;10.192;2023-09-19T10:43:19;21.30;42.20
40534;DHT22;26233;51.894;10.192;2023-09-19T10:45:48;21.40;42.40
40534;DHT22;26233;51.894;10.192;2023-09-19T10:48:18;21.60;42.70
40534;DHT22;26233;51.894;10.192;2023-09-19T10:50:52;21.70;42.50
40534;DHT22;26233;51.894;10.192;2023-09-19T10:53:22;21.90;42.50
40534;DHT22;26233;51.894;10.192;2023-09-19T10:55:52;22.00;42.50
40534;DHT22;26233;51.894;10.192;2023-09-19T10:58:27;22.10;42.50
40534;DHT22;26233;51.894;10.192;2023-09-19T11:00:55;22.20;42.10
40534;DHT22;26233;51.894;10.192;2023-09-19T11:03:27;22.30;42.60
40534;DHT22;26233;51.894;10.192;2023-09-19T11:06:03;22.30;41.70
40534;DHT22;26233;51.894;10.192;2023-09-19T11:08:55;22.30;41.50
40534;DHT22;26233;51.894;10.192;2023-09-19T11:11:45;22.30;41.40
40534;DHT22;26233;51.894;10.192;2023-09-19T11:14:29;22.30;40.90
40534;DHT22;26233;51.894;10.192;2023-09-19T11:20:23;22.30;40.90
40534;DHT22;26233;51.894;10.192;2023-09-19T11:23:19;22.30;40.50
40534;DHT22;26233;51.894;10.192;2023-09-19T11:25:55;22.20;40.40
40534;DHT22;26233;51.894;10.192;2023-09-19T11:28:32;22.10;40.60
40534;DHT22;26233;51.894;10.192;2023-09-19T11:34:46;21.90;40.50
40534;DHT22;26233;51.894;10.192;2023-09-19T11:40:36;21.90;40.80
40534;DHT22;26233;51.894;10.192;2023-09-19T11:43:29;22.00;41.50
40534;DHT22;26233;51.894;10.192;2023-09-19T11:46:05;22.10;40.90
40534;DHT22;26233;51.894;10.192;2023-09-19T11:48:34;22.10;40.70
40534;DHT22;26233;51.894;10.192;2023-09-19T11:51:13;22.20;41.10
40534;DHT22;26233;51.894;10.192;2023-09-19T11:53:45;22.30;40.90
40534;DHT22;26233;51.894;10.192;2023-09-19T11:56:16;22.40;41.00
40534;DHT22;26233;51.894;10.192;2023-09-19T11:58:45;22.40;40.70
40534;DHT22;26233;51.894;10.192;2023-09-19T12:01:14;22.50;40.60
40534;DHT22;26233;51.894;10.192;2023-09-19T12:03:48;22.50;40.70
40534;DHT22;26233;51.894;10.192;2023-09-19T12:06:20;22.50;40.80
40534;DHT22;26233;51.894;10.192;2023-09-19T12:08:48;22.60;40.70
40534;DHT22;26233;51.894;10.192;2023-09-19T12:11:17;22.70;40.80
40534;DHT22;26233;51.894;10.192;2023-09-19T12:13:47;22.80;40.90
40534;DHT22;26233;51.894;10.192;2023-09-19T12:16:16;22.90;41.00
40534;DHT22;26233;51.894;10.192;2023-09-19T12:18:47;23.00;40.90
40534;DHT22;26233;51.894;10.192;2023-09-19T12:21:27;23.20;41.10
40534;DHT22;26233;51.894;10.192;2023-09-19T12:24:07;23.30;40.60
40534;DHT22;26233;51.894;10.192;2023-09-19T12:26:40;23.50;40.70
40534;DHT22;26233;51.894;10.192;2023-09-19T12:29:20;23.80;41.10
40534;DHT22;26233;51.894;10.192;2023-09-19T12:31:49;23.90;40.40
40534;DHT22;26233;51.894;10.192;2023-09-19T12:34:22;24.00;40.50
40534;DHT22;26233;51.894;10.192;2023-09-19T12:37:07;24.00;40.00
40534;DHT22;26233;51.894;10.192;2023-09-19T12:39:44;24.00;39.40
40534;DHT22;26233;51.894;10.192;2023-09-19T12:42:15;24.00;39.50
40534;DHT22;26233;51.894;10.192;2023-09-19T12:44:45;24.00;39.70
40534;DHT22;26233;51.894;10.192;2023-09-19T12:47:14;24.10;39.90
40534;DHT22;26233;51.894;10.192;2023-09-19T12:50:07;24.10;39.60
40534;DHT22;26233;51.894;10.192;2023-09-19T12:52:39;24.10;39.00
40534;DHT22;26233;51.894;10.192;2023-09-19T12:55:10;24.20;39.50
40534;DHT22;26233;51.894;10.192;2023-09-19T12:58:03;24.20;39.40
40534;DHT22;26233;51.894;10.192;2023-09-19T13:00:38;24.20;38.50
40534;DHT22;26233;51.894;10.192;2023-09-19T13:03:17;24.30;38.90
40534;DHT22;26233;51.894;10.192;2023-09-19T13:05:57;24.30;39.30
40534;DHT22;26233;51.894;10.192;2023-09-19T13:08:27;24.40;38.70
40534;DHT22;26233;51.894;10.192;2023-09-19T13:11:09;24.30;38.60
40534;DHT22;26233;51.894;10.192;2023-09-19T13:13:40;24.30;37.80
40534;DHT22;26233;51.894;10.192;2023-09-19T13:16:11;24.20;38.30
40534;DHT22;26233;51.894;10.192;2023-09-19T13:18:46;24.20;38.20
40534;DHT22;26233;51.894;10.192;2023-09-19T13:21:16;24.20;38.20
40534;DHT22;26233;51.894;10.192;2023-09-19T13:23:51;24.20;38.10
40534;DHT22;26233;51.894;10.192;2023-09-19T13:26:20;24.20;37.90
40534;DHT22;26233;51.894;10.192;2023-09-19T13:28:48;24.10;37.50
40534;DHT22;26233;51.894;10.192;2023-09-19T13:31:17;24.10;37.30
40534;DHT22;26233;51.894;10.192;2023-09-19T13:33:45;24.00;37.10
40534;DHT22;26233;51.894;10.192;2023-09-19T13:36:12;24.00;37.20
40534;DHT22;26233;51.894;10.192;2023-09-19T13:38:40;24.00;37.40
40534;DHT22;26233;51.894;10.192;2023-09-19T13:41:09;24.00;37.40
40534;DHT22;26233;51.894;10.192;2023-09-19T13:43:36;24.00;37.30
40534;DHT22;26233;51.894;10.192;2023-09-19T13:46:04;24.00;37.00
40534;DHT22;26233;51.894;10.192;2023-09-19T13:48:34;23.90;36.60
40534;DHT22;26233;51.894;10.192;2023-09-19T13:51:02;23.80;36.40
40534;DHT22;26233;51.894;10.192;2023-09-19T13:53:30;23.70;36.50
40534;DHT22;26233;51.894;10.192;2023-09-19T13:55:57;23.50;36.30
40534;DHT22;26233;51.894;10.192;2023-09-19T13:58:24;23.40;36.50
40534;DHT22;26233;51.894;10.192;2023-09-19T14:00:52;23.30;36.60
40534;DHT22;26233;51.894;10.192;2023-09-19T14:03:21;23.30;36.70
40534;DHT22;26233;51.894;10.192;2023-09-19T14:05:50;23.20;36.60
40534;DHT22;26233;51.894;10.192;2023-09-19T14:08:18;23.20;36.80
40534;DHT22;26233;51.894;10.192;2023-09-19T14:10:45;23.20;37.00
40534;DHT22;26233;51.894;10.192;2023-09-19T14:13:12;23.30;37.00
40534;DHT22;26233;51.894;10.192;2023-09-19T14:15:40;23.30;37.10
40534;DHT22;26233;51.894;10.192;2023-09-19T14:18:08;23.40;37.00
40534;DHT22;26233;51.894;10.192;2023-09-19T14:20:38;23.50;37.00
40534;DHT22;26233;51.894;10.192;2023-09-19T14:23:08;23.60;36.90
40534;DHT22;26233;51.894;10.192;2023-09-19T14:25:35;23.70;37.10
40534;DHT22;26233;51.894;10.192;2023-09-19T14:28:04;23.70;37.00
40534;DHT22;26233;51.894;10.192;2023-09-19T14:30:33;23.80;36.80
40534;DHT22;26233;51.894;10.192;2023-09-19T14:33:03;23.80;36.70
40534;DHT22;26233;51.894;10.192;2023-09-19T14:35:30;23.80;36.50
40534;DHT22;26233;51.894;10.192;2023-09-19T14:37:57;23.90;36.30
40534;DHT22;26233;51.894;10.192;2023-09-19T14:40:26;23.70;36.00
40534;DHT22;26233;51.894;10.192;2023-09-19T14:42:53;23.60;35.80
40534;DHT22;26233;51.894;10.192;2023-09-19T14:45:20;23.50;35.90
40534;DHT22;26233;51.894;10.192;2023-09-19T14:47:47;23.40;36.50
40534;DHT22;26233;51.894;10.192;2023-09-19T14:50:14;23.30;35.90
40534;DHT22;26233;51.894;10.192;2023-09-19T14:52:41;23.30;35.90
40534;DHT22;26233;51.894;10.192;2023-09-19T14:55:08;23.20;36.20
40534;DHT22;26233;51.894;10.192;2023-09-19T14:57:41;23.20;36.40
40534;DHT22;26233;51.894;10.192;2023-09-19T15:00:11;23.20;36.40
40534;DHT22;26233;51.894;10.192;2023-09-19T15:02:39;23.20;36.40
40534;DHT22;26233;51.894;10.192;2023-09-19T15:05:07;23.20;36.40
40534;DHT22;26233;51.894;10.192;2023-09-19T15:07:35;23.20;36.40
40534;DHT22;26233;51.894;10.192;2023-09-19T15:10:04;23.20;36.20
40534;DHT22;26233;51.894;10.192;2023-09-19T15:12:35;23.10;36.20
40534;DHT22;26233;51.894;10.192;2023-09-19T15:15:05;23.00;36.20
40534;DHT22;26233;51.894;10.192;2023-09-19T15:17:33;22.90;36.00
40534;DHT22;26233;51.894;10.192;2023-09-19T15:20:00;22.90;36.10
40534;DHT22;26233;51.894;10.192;2023-09-19T15:22:32;22.80;36.10
40534;DHT22;26233;51.894;10.192;2023-09-19T15:24:59;22.70;36.00
40534;DHT22;26233;51.894;10.192;2023-09-19T15:27:27;22.50;35.80
40534;DHT22;26233;51.894;10.192;2023-09-19T15:29:56;22.40;35.90
40534;DHT22;26233;51.894;10.192;2023-09-19T15:32:25;22.20;35.90
40534;DHT22;26233;51.894;10.192;2023-09-19T15:34:52;22.10;35.90
40534;DHT22;26233;51.894;10.192;2023-09-19T15:37:19;22.00;36.10
40534;DHT22;26233;51.894;10.192;2023-09-19T15:39:46;21.90;36.10
40534;DHT22;26233;51.894;10.192;2023-09-19T15:42:13;21.80;36.20
40534;DHT22;26233;51.894;10.192;2023-09-19T15:44:42;21.70;36.90